Time,TemperatureF,DewpointF,PressureIn,WindDirection,WindDirectionDegrees,WindSpeedMPH,WindSpeedGustMPH,Humidity,HourlyPrecipIn,Conditions,Clouds,dailyrainin,SolarRadiationWatts/m^2,SoftwareType,DateUTC
2013-05-02 00:21:00,30.0,9.0,-100.00,NE,41,4.0,19.0,40,0.00,,,0.00,1.000000,,2013-05-02 06:21:00,
2013-05-02 00:31:00,30.0,9.0,-100.00,NE,41,4.0,19.0,40,0.00,,,0.00,1.000000,,2013-05-02 06:31:00,
2013-05-02 00:42:00,30.0,9.0,-100.00,NE,41,4.0,19.0,40,0.00,,,0.00,1.000000,,2013-05-02 06:42:00,
2013-05-02 00:52:00,30.0,9.0,-100.00,NE,41,4.0,19.0,40,0.00,,,0.00,1.000000,,2013-05-02 06:52:00,
2013-05-02 01:21:00,30.0,10.0,-100.00,NE,54,7.0,16.0,42,0.00,,,0.00,1.000000,,2013-05-02 07:21:00,
2013-05-02 01:31:00,30.0,10.0,-100.00,NE,54,7.0,16.0,42,0.00,,,0.00,1.000000,,2013-05-02 07:31:00,
2013-05-02 01:41:00,30.0,10.0,-100.00,NE,54,7.0,16.0,42,0.00,,,0.00,1.000000,,2013-05-02 07:41:00,
2013-05-02 01:52:00,30.0,10.0,-100.00,NE,54,7.0,16.0,42,0.00,,,0.00,1.000000,,2013-05-02 07:52:00,
2013-05-02 02:22:00,29.0,12.0,-100.00,NE,49,10.0,18.0,48,0.00,,,-99.99,1.000000,,2013-05-02 08:22:00,
2013-05-02 02:32:00,29.0,12.0,-100.00,NE,49,10.0,18.0,48,0.00,,,-99.99,1.000000,,2013-05-02 08:32:00,
2013-05-02 02:42:00,29.0,12.0,-100.00,NE,49,10.0,18.0,48,0.00,,,-99.99,1.000000,,2013-05-02 08:42:00,
2013-05-02 02:52:00,29.0,12.0,-100.00,NE,49,10.0,18.0,48,0.00,,,-99.99,1.000000,,2013-05-02 08:52:00,
2013-05-02 03:21:00,27.0,10.0,-100.00,NE,50,7.0,19.0,48,0.00,,,0.00,1.000000,,2013-05-02 09:21:00,
2013-05-02 03:32:00,27.0,10.0,-100.00,NE,50,7.0,19.0,48,0.00,,,0.00,1.000000,,2013-05-02 09:32:00,
2013-05-02 03:42:00,27.0,10.0,-100.00,NE,50,7.0,19.0,48,0.00,,,0.00,1.000000,,2013-05-02 09:42:00,
2013-05-02 03:52:00,27.0,10.0,-100.00,NE,50,7.0,19.0,48,0.00,,,0.00,1.000000,,2013-05-02 09:52:00,
2013-05-02 04:22:00,26.0,7.0,-100.00,ENE,76,5.0,11.0,44,0.00,,,0.00,1.000000,,2013-05-02 10:22:00,
2013-05-02 04:32:00,26.0,7.0,-100.00,ENE,76,5.0,11.0,44,0.00,,,0.00,1.000000,,2013-05-02 10:32:00,
2013-05-02 04:42:00,26.0,7.0,-100.00,ENE,76,5.0,11.0,44,0.00,,,0.00,1.000000,,2013-05-02 10:42:00,
2013-05-02 04:52:00,26.0,7.0,-100.00,ENE,76,5.0,11.0,44,0.00,,,0.00,1.000000,,2013-05-02 10:52:00,
2013-05-02 05:22:00,26.0,6.0,-100.00,ENE,77,7.0,13.0,41,0.00,,,0.00,1.000000,,2013-05-02 11:22:00,
2013-05-02 05:32:00,26.0,6.0,-100.00,ENE,77,7.0,13.0,41,0.00,,,0.00,1.000000,,2013-05-02 11:32:00,
2013-05-02 05:42:00,26.0,6.0,-100.00,ENE,77,7.0,13.0,41,0.00,,,0.00,1.000000,,2013-05-02 11:42:00,
2013-05-02 05:52:00,26.0,6.0,-100.00,ENE,77,7.0,13.0,41,0.00,,,0.00,1.000000,,2013-05-02 11:52:00,
2013-05-02 06:21:00,25.0,3.0,-100.00,East,80,4.0,12.0,38,0.00,,,0.00,1.000000,,2013-05-02 12:21:00,
2013-05-02 06:32:00,25.0,3.0,-100.00,East,80,4.0,12.0,38,0.00,,,0.00,1.000000,,2013-05-02 12:32:00,
2013-05-02 06:42:00,25.0,3.0,-100.00,East,80,4.0,12.0,38,0.00,,,0.00,1.000000,,2013-05-02 12:42:00,
2013-05-02 06:52:00,25.0,3.0,-100.00,East,80,4.0,12.0,38,0.00,,,0.00,1.000000,,2013-05-02 12:52:00,
2013-05-02 07:21:00,27.0,4.0,-100.00,NE,56,4.0,10.0,36,0.00,,,0.00,20.000000,,2013-05-02 13:21:00,
2013-05-02 07:31:00,27.0,4.0,-100.00,NE,56,4.0,10.0,36,0.00,,,0.00,20.000000,,2013-05-02 13:31:00,
2013-05-02 07:41:00,27.0,4.0,-100.00,NE,56,4.0,10.0,36,0.00,,,0.00,20.000000,,2013-05-02 13:41:00,
2013-05-02 07:52:00,27.0,4.0,-100.00,NE,56,4.0,10.0,36,0.00,,,0.00,20.000000,,2013-05-02 13:52:00,
2013-05-02 08:22:00,31.0,5.0,-100.00,NE,36,6.0,12.0,33,0.00,,,0.00,177.000000,,2013-05-02 14:22:00,
2013-05-02 08:32:00,31.0,5.0,-100.00,NE,36,6.0,12.0,33,0.00,,,0.00,177.000000,,2013-05-02 14:32:00,
2013-05-02 08:42:00,31.0,5.0,-100.00,NE,36,6.0,12.0,33,0.00,,,0.00,177.000000,,2013-05-02 14:42:00,
2013-05-02 08:52:00,31.0,5.0,-100.00,NE,36,6.0,12.0,33,0.00,,,0.00,177.000000,,2013-05-02 14:52:00,
2013-05-02 09:22:00,34.0,6.0,-100.00,ENE,74,8.0,14.0,30,0.00,,,0.00,376.000000,,2013-05-02 15:22:00,
2013-05-02 09:33:00,34.0,6.0,-100.00,ENE,74,8.0,14.0,30,0.00,,,0.00,376.000000,,2013-05-02 15:33:00,
2013-05-02 09:43:00,34.0,6.0,-100.00,ENE,74,8.0,14.0,30,0.00,,,0.00,376.000000,,2013-05-02 15:43:00,
2013-05-02 10:22:00,37.0,5.0,-100.00,ENE,72,7.0,15.0,26,0.00,,,0.00,579.000000,,2013-05-02 16:22:00,
2013-05-02 10:32:00,37.0,5.0,-100.00,ENE,72,7.0,15.0,26,0.00,,,0.00,579.000000,,2013-05-02 16:32:00,
2013-05-02 10:43:00,37.0,5.0,-100.00,ENE,72,7.0,15.0,26,0.00,,,0.00,579.000000,,2013-05-02 16:43:00,
2013-05-02 10:52:00,37.0,5.0,-100.00,ENE,72,7.0,15.0,26,0.00,,,0.00,579.000000,,2013-05-02 16:52:00,
2013-05-02 11:22:00,41.0,2.0,-100.00,NE,48,8.0,15.0,19,0.00,,,0.00,757.000000,,2013-05-02 17:22:00,
2013-05-02 11:31:00,41.0,2.0,-100.00,NE,48,8.0,15.0,19,0.00,,,0.00,757.000000,,2013-05-02 17:31:00,
2013-05-02 11:42:00,41.0,2.0,-100.00,NE,48,8.0,15.0,19,0.00,,,0.00,757.000000,,2013-05-02 17:42:00,
2013-05-02 11:51:00,41.0,2.0,-100.00,NE,48,8.0,15.0,19,0.00,,,0.00,757.000000,,2013-05-02 17:51:00,
2013-05-02 12:21:00,42.0,-2.0,-100.00,NE,54,8.0,16.0,15,0.00,,,0.00,897.000000,,2013-05-02 18:21:00,
2013-05-02 12:31:00,42.0,-2.0,-100.00,NE,54,8.0,16.0,15,0.00,,,0.00,897.000000,,2013-05-02 18:31:00,
2013-05-02 12:41:00,42.0,-2.0,-100.00,NE,54,8.0,16.0,15,0.00,,,0.00,897.000000,,2013-05-02 18:41:00,
2013-05-02 12:51:00,42.0,-2.0,-100.00,NE,54,8.0,16.0,15,0.00,,,0.00,897.000000,,2013-05-02 18:51:00,
2013-05-02 13:21:00,44.0,-2.0,-100.00,NNE,12,7.0,18.0,14,0.00,,,0.00,979.000000,,2013-05-02 19:21:00,
2013-05-02 13:31:00,44.0,-2.0,-100.00,NNE,12,7.0,18.0,14,0.00,,,0.00,979.000000,,2013-05-02 19:31:00,
2013-05-02 13:41:00,44.0,-2.0,-100.00,NNE,12,7.0,18.0,14,0.00,,,0.00,979.000000,,2013-05-02 19:41:00,
2013-05-02 13:52:00,44.0,-2.0,-100.00,NNE,12,7.0,18.0,14,0.00,,,0.00,979.000000,,2013-05-02 19:52:00,
2013-05-02 14:22:00,45.0,-5.0,-100.00,NNE,25,6.0,16.0,12,0.00,,,0.00,1000.000000,,2013-05-02 20:22:00,
2013-05-02 14:32:00,45.0,-5.0,-100.00,NNE,25,6.0,16.0,12,0.00,,,0.00,1000.000000,,2013-05-02 20:32:00,
2013-05-02 15:21:00,48.0,1.0,-100.00,NNE,23,5.0,14.0,14,0.00,,,0.00,959.000000,,2013-05-02 21:21:00,
2013-05-02 15:33:00,48.0,1.0,-100.00,NNE,23,5.0,14.0,14,0.00,,,0.00,959.000000,,2013-05-02 21:33:00,
2013-05-02 15:42:00,48.0,1.0,-100.00,NNE,23,5.0,14.0,14,0.00,,,0.00,959.000000,,2013-05-02 21:42:00,
2013-05-02 15:53:00,48.0,1.0,-100.00,NNE,23,5.0,14.0,14,0.00,,,0.00,959.000000,,2013-05-02 21:53:00,
2013-05-02 16:22:00,48.0,1.0,-100.00,NNE,31,8.0,19.0,14,0.00,,,0.00,865.000000,,2013-05-02 22:22:00,
2013-05-02 16:32:00,48.0,1.0,-100.00,NNE,31,8.0,19.0,14,0.00,,,0.00,865.000000,,2013-05-02 22:32:00,
2013-05-02 16:42:00,48.0,1.0,-100.00,NNE,31,8.0,19.0,14,0.00,,,0.00,865.000000,,2013-05-02 22:42:00,
2013-05-02 16:52:00,48.0,1.0,-100.00,NNE,31,8.0,19.0,14,0.00,,,0.00,865.000000,,2013-05-02 22:52:00,
2013-05-02 17:22:00,48.0,0.0,-100.00,NE,43,7.0,15.0,13,0.00,,,0.00,717.000000,,2013-05-02 23:22:00,
2013-05-02 17:32:00,48.0,0.0,-100.00,NE,43,7.0,15.0,13,0.00,,,0.00,717.000000,,2013-05-02 23:32:00,
2013-05-02 17:42:00,48.0,0.0,-100.00,NE,43,7.0,15.0,13,0.00,,,0.00,717.000000,,2013-05-02 23:42:00,
2013-05-02 17:51:00,48.0,0.0,-100.00,NE,43,7.0,15.0,13,0.00,,,0.00,717.000000,,2013-05-02 23:51:00,
2013-05-02 18:21:00,48.0,0.0,-100.00,NE,36,6.0,16.0,13,0.00,,,0.00,532.000000,,2013-05-03 00:21:00,
2013-05-02 19:21:00,45.0,2.0,-100.00,NNE,26,6.0,14.0,16,0.00,,,0.00,300.000000,,2013-05-03 01:21:00,
2013-05-02 19:31:00,45.0,2.0,-100.00,NNE,26,6.0,14.0,16,0.00,,,0.00,300.000000,,2013-05-03 01:31:00,
2013-05-02 19:41:00,45.0,2.0,-100.00,NNE,26,6.0,14.0,16,0.00,,,0.00,300.000000,,2013-05-03 01:41:00,
2013-05-02 19:52:00,45.0,2.0,-100.00,NNE,26,6.0,14.0,16,0.00,,,0.00,300.000000,,2013-05-03 01:52:00,
2013-05-02 20:21:00,40.0,1.0,-100.00,NE,43,4.0,12.0,19,0.00,,,0.00,30.000000,,2013-05-03 02:21:00,
2013-05-02 20:32:00,40.0,1.0,-100.00,NE,43,4.0,12.0,19,0.00,,,0.00,30.000000,,2013-05-03 02:32:00,
2013-05-02 20:42:00,40.0,1.0,-100.00,NE,43,4.0,12.0,19,0.00,,,0.00,30.000000,,2013-05-03 02:42:00,
2013-05-02 20:52:00,40.0,1.0,-100.00,NE,43,4.0,12.0,19,0.00,,,0.00,30.000000,,2013-05-03 02:52:00,
2013-05-02 21:21:00,36.0,1.0,-100.00,ENE,72,4.0,8.0,22,0.00,,,0.00,3.000000,,2013-05-03 03:21:00,
2013-05-02 21:33:00,36.0,1.0,-100.00,ENE,72,4.0,8.0,22,0.00,,,0.00,3.000000,,2013-05-03 03:33:00,
2013-05-02 21:42:00,36.0,1.0,-100.00,ENE,72,4.0,8.0,22,0.00,,,0.00,3.000000,,2013-05-03 03:42:00,
2013-05-02 21:52:00,36.0,1.0,-100.00,ENE,72,4.0,8.0,22,0.00,,,0.00,3.000000,,2013-05-03 03:52:00,
2013-05-02 22:22:00,35.0,3.0,-100.00,ENE,65,6.0,9.0,25,0.00,,,0.00,1.000000,,2013-05-03 04:22:00,
2013-05-02 22:32:00,35.0,3.0,-100.00,ENE,65,6.0,9.0,25,0.00,,,0.00,1.000000,,2013-05-03 04:32:00,
2013-05-02 22:42:00,35.0,3.0,-100.00,ENE,65,6.0,9.0,25,0.00,,,0.00,1.000000,,2013-05-03 04:42:00,
2013-05-02 22:52:00,35.0,3.0,-100.00,ENE,65,6.0,9.0,25,0.00,,,0.00,1.000000,,2013-05-03 04:52:00,
2013-05-02 23:21:00,34.0,3.0,-100.00,East,81,3.0,9.0,26,0.00,,,0.00,1.000000,,2013-05-03 05:21:00,
2013-05-02 23:32:00,34.0,3.0,-100.00,East,81,3.0,9.0,26,0.00,,,0.00,1.000000,,2013-05-03 05:32:00,
2013-05-02 23:42:00,34.0,3.0,-100.00,East,81,3.0,9.0,26,0.00,,,0.00,1.000000,,2013-05-03 05:42:00,
2013-05-02 23:52:00,34.0,3.0,-100.00,East,81,3.0,9.0,26,0.00,,,0.00,1.000000,,2013-05-03 05:52:00,